MAPA DE AEROPUERTO

INFORMACIÓN METAR y TAF

METAR FOR LIRF
ADDS - METARS form results

(0349 UTC 22 June 2021)
Data provider http://aviationweather.gov/metar/data/
 
METAR text: LIRF 220320Z VRB02KT CAVOK 19/18 Q1010 NOSIG
Conditions at: LIRF (ROME/FIUMICINO , IT) observed 0320 UTC 22 June 2021
Temperature: 19.0°C (66°F)
Dewpoint: 18.0°C (64°F) [RH = 94%]
Pressure (altimeter): 29.82 inches Hg (1010.0 mb)
Winds: variable direction winds at 2 MPH (2 knots; 1.0 m/s)
Visibility: 6 or more miles (10+ km)
Ceiling: ceiling and visibility are OK
Clouds: unknown
Weather: no significant weather observed at this time

METAR text: LIRF 220250Z 03003KT CAVOK 20/18 Q1010 NOSIG
Conditions at: LIRF (ROME/FIUMICINO , IT) observed 0250 UTC 22 June 2021
Temperature: 20.0°C (68°F)
Dewpoint: 18.0°C (64°F) [RH = 88%]
Pressure (altimeter): 29.82 inches Hg (1010.0 mb)
Winds: from the NNE (30 degrees) at 3 MPH (3 knots; 1.5 m/s)
Visibility: 6 or more miles (10+ km)
Ceiling: ceiling and visibility are OK
Clouds: unknown
Weather: no significant weather observed at this time

Forecast for: LIRF (ROME/FIUMICINO , IT)
Text: TAF LIRF 212300Z 2200/2306 VRB04KT 9999 FEW040
Forecast period: 0000 to 0800 UTC 22 June 2021
Forecast type: FROM: standard forecast or significant change
Winds: variable direction winds at 5 MPH (4 knots; 2.1 m/s)
Visibility: 6 or more miles (10+ km)
Ceiling: at least 12,000 feet AGL
Clouds: few clouds at 4000 feet AGL
Weather: no significant weather forecast for this period
Text: TEMPO 2200/2206 3000 BR
Forecast period: 0000 to 0600 UTC 22 June 2021
Forecast type: TEMPORARY: The following changes expected for less than half the time period
Visibility: 1.86 miles (2.99 km)
Ceiling: unknown
Clouds: missing
Weather: BR  (mist)
Text: BECMG 2208/2210 27012KT
Forecast period: 0800 to 1800 UTC 22 June 2021
Forecast type: BECOMING: Conditions expected to become as follows by 1000 UTC 22 June 2021
Winds: from the W (270 degrees) at 14 MPH (12 knots; 6.2 m/s)
Visibility: 6 or more miles (10+ km)
Ceiling: at least 12,000 feet AGL
Clouds: few clouds at 4000 feet AGL
Weather: no significant weather forecast for this period
Text: BECMG 2218/2220 VRB04KT
Forecast period: 1800 UTC 22 June 2021 to 0600 UTC 23 June 2021
Forecast type: BECOMING: Conditions expected to become as follows by 2000 UTC 22 June 2021
Winds: variable direction winds at 5 MPH (4 knots; 2.1 m/s)
Visibility: 6 or more miles (10+ km)
Ceiling: at least 12,000 feet AGL
Clouds: few clouds at 4000 feet AGL
Weather: no significant weather forecast for this period
Text: TEMPO 2300/2305 3000 BR
Forecast period: 0000 to 0500 UTC 23 June 2021
Forecast type: TEMPORARY: The following changes expected for less than half the time period
Visibility: 1.86 miles (2.99 km)
Ceiling: unknown
Clouds: missing
Weather: BR  (mist)